createdAt,value
2018-03-25T00:00:40.100Z,43.27
2018-03-25T00:03:11.189Z,46.00
2018-03-25T00:05:38.795Z,45.43
2018-03-25T00:08:06.331Z,41.80
2018-03-25T00:10:35.752Z,45.97
2018-03-25T00:13:03.494Z,45.47
2018-03-25T00:15:31.973Z,47.33
2018-03-25T00:17:59.542Z,45.03
2018-03-25T00:20:29.700Z,48.73
2018-03-25T00:22:57.800Z,45.70
2018-03-25T00:25:26.130Z,46.17
2018-03-25T00:27:54.264Z,43.67
2018-03-25T00:30:21.820Z,42.07
2018-03-25T00:32:49.665Z,45.77
2018-03-25T00:35:17.533Z,44.40
2018-03-25T00:37:45.217Z,43.97
2018-03-25T00:40:13.478Z,39.53
2018-03-25T00:42:41.044Z,45.63
2018-03-25T00:45:10.371Z,50.13
2018-03-25T00:47:40.280Z,37.30
2018-03-25T00:50:07.803Z,44.67
2018-03-25T00:52:36.148Z,45.80
2018-03-25T00:55:04.020Z,44.10
2018-03-25T00:57:32.293Z,41.80
2018-03-25T01:00:00.332Z,40.53
2018-03-25T01:02:29.858Z,44.67
2018-03-25T01:04:58.923Z,38.10
2018-03-25T01:07:26.476Z,42.47
2018-03-25T01:09:54.724Z,42.33
2018-03-25T01:12:22.406Z,42.57
2018-03-25T01:14:49.938Z,45.10
2018-03-25T01:17:18.873Z,40.27
2018-03-25T01:19:46.386Z,43.87
2018-03-25T01:22:13.995Z,36.80
2018-03-25T01:24:41.554Z,40.47
2018-03-25T01:27:09.065Z,44.90
2018-03-25T01:29:36.632Z,39.13
2018-03-25T01:32:05.417Z,44.40
2018-03-25T01:34:33.127Z,38.07
2018-03-25T01:37:01.295Z,49.17
2018-03-25T01:39:29.759Z,38.13
2018-03-25T01:41:57.308Z,43.13
2018-03-25T01:44:26.512Z,45.53
2018-03-25T01:46:54.036Z,40.77
2018-03-25T01:49:21.557Z,41.17
2018-03-25T01:51:49.160Z,43.63
2018-03-25T01:54:17.513Z,45.60
2018-03-25T01:56:45.770Z,45.03
2018-03-25T01:59:14.017Z,43.17
2018-03-25T02:01:41.561Z,41.53
2018-03-25T02:04:09.870Z,42.93
2018-03-25T02:06:37.459Z,41.87
2018-03-25T02:09:05.776Z,43.27
2018-03-25T02:11:33.940Z,41.50
2018-03-25T02:14:01.520Z,44.70
2018-03-25T02:16:30.677Z,43.60
2018-03-25T02:18:58.227Z,44.90
2018-03-25T02:21:27.168Z,45.67
2018-03-25T02:23:55.319Z,42.43
2018-03-25T02:26:22.896Z,40.13
2018-03-25T02:28:51.148Z,49.70
2018-03-25T02:31:19.340Z,47.47
2018-03-25T02:33:46.872Z,39.30
2018-03-25T02:36:15.189Z,46.70
2018-03-25T02:38:44.309Z,42.03
2018-03-25T02:41:12.568Z,41.40
2018-03-25T02:43:40.876Z,45.77
2018-03-25T02:46:08.509Z,45.23
2018-03-25T02:48:36.035Z,47.83
2018-03-25T02:51:05.273Z,42.10
2018-03-25T02:53:33.372Z,46.17
2018-03-25T02:56:00.931Z,45.73
2018-03-25T02:58:29.600Z,45.83
2018-03-25T03:00:57.231Z,40.53
2018-03-25T03:03:26.460Z,42.97
2018-03-25T03:05:54.637Z,48.53
2018-03-25T03:08:22.273Z,47.60
2018-03-25T03:10:49.824Z,48.13
2018-03-25T03:13:18.371Z,51.93
2018-03-25T03:15:46.818Z,53.57
2018-03-25T03:18:14.670Z,49.70
2018-03-25T03:20:43.536Z,48.00
2018-03-25T03:23:11.073Z,54.13
2018-03-25T03:25:38.675Z,51.07
2018-03-25T03:28:07.781Z,56.93
2018-03-25T03:30:36.224Z,52.50
2018-03-25T03:33:04.933Z,50.27
2018-03-25T03:35:34.071Z,53.57
2018-03-25T03:38:01.727Z,51.57
2018-03-25T03:40:31.087Z,51.43
2018-03-25T03:42:58.671Z,48.80
2018-03-25T03:45:27.099Z,52.60
2018-03-25T03:47:55.177Z,51.87
2018-03-25T03:50:22.750Z,54.90
2018-03-25T03:52:50.298Z,64.10
2018-03-25T03:55:18.104Z,54.07
2018-03-25T03:57:47.649Z,50.67
2018-03-25T04:00:15.839Z,58.67
2018-03-25T04:02:43.407Z,58.63
2018-03-25T04:05:11.080Z,54.03
2018-03-25T04:07:38.779Z,54.10
2018-03-25T04:10:06.350Z,56.07
2018-03-25T04:12:33.960Z,51.93
2018-03-25T04:15:01.475Z,56.40
2018-03-25T04:17:29.685Z,56.97
2018-03-25T04:19:57.244Z,55.40
2018-03-25T04:22:26.785Z,59.77
2018-03-25T04:24:54.340Z,60.93
2018-03-25T04:27:22.646Z,61.77
2018-03-25T04:29:50.178Z,58.00
2018-03-25T04:32:18.527Z,60.50
2018-03-25T04:34:46.104Z,67.53
2018-03-25T04:37:13.850Z,61.10
2018-03-25T04:39:41.468Z,64.90
2018-03-25T04:42:09.060Z,63.23
2018-03-25T04:44:36.613Z,62.63
2018-03-25T04:47:04.950Z,65.33
2018-03-25T04:49:33.284Z,74.50
2018-03-25T04:52:00.799Z,67.47
2018-03-25T04:54:28.383Z,62.70
2018-03-25T04:56:55.989Z,74.87
2018-03-25T04:59:23.559Z,64.90
2018-03-25T05:01:51.144Z,69.83
2018-03-25T05:04:19.343Z,63.67
2018-03-25T05:06:48.515Z,65.03
2018-03-25T05:09:16.880Z,69.30
2018-03-25T05:11:45.987Z,65.27
2018-03-25T05:14:13.551Z,59.67
2018-03-25T05:16:41.276Z,58.13
2018-03-25T05:19:09.817Z,63.77
2018-03-25T05:21:37.371Z,67.73
2018-03-25T05:24:05.437Z,62.27
2018-03-25T05:26:33.824Z,83.80
2018-03-25T05:29:01.463Z,67.70
2018-03-25T05:31:29.037Z,79.13
2018-03-25T05:33:56.551Z,69.30
2018-03-25T05:36:24.337Z,79.00
2018-03-25T05:38:51.891Z,65.03
2018-03-25T05:41:20.191Z,59.30
2018-03-25T05:43:47.760Z,67.73
2018-03-25T05:46:16.119Z,74.80
2018-03-25T05:48:44.516Z,65.30
2018-03-25T05:51:12.090Z,65.53
2018-03-25T05:53:39.745Z,60.27
2018-03-25T05:56:07.420Z,59.70
2018-03-25T05:58:35.486Z,72.90
2018-03-25T06:01:03.079Z,66.43
2018-03-25T06:03:31.322Z,66.07
2018-03-25T06:06:00.164Z,64.83
2018-03-25T06:08:29.072Z,66.70
2018-03-25T06:10:58.153Z,65.03
2018-03-25T06:13:26.536Z,66.47
2018-03-25T06:15:55.489Z,60.13
2018-03-25T06:18:22.999Z,65.10
2018-03-25T06:20:50.519Z,66.87
2018-03-25T06:23:18.079Z,69.77
2018-03-25T06:25:46.392Z,61.60
2018-03-25T06:28:15.290Z,67.37
2018-03-25T06:30:42.865Z,65.20
2018-03-25T06:33:10.482Z,61.83
2018-03-25T06:35:38.010Z,62.63
2018-03-25T06:38:07.340Z,61.57
2018-03-25T06:40:35.544Z,59.40
2018-03-25T06:43:04.329Z,61.53
2018-03-25T06:45:31.867Z,61.70
2018-03-25T06:48:01.036Z,63.33
2018-03-25T06:50:30.245Z,69.03
2018-03-25T06:52:57.786Z,63.37
2018-03-25T06:55:26.152Z,61.07
2018-03-25T06:57:54.365Z,59.43
2018-03-25T07:00:21.927Z,62.13
2018-03-25T07:02:50.563Z,55.67
2018-03-25T07:05:18.856Z,60.10
2018-03-25T07:07:47.478Z,61.67
2018-03-25T07:10:15.947Z,63.97
2018-03-25T07:12:43.506Z,57.67
2018-03-25T07:15:11.075Z,60.90
2018-03-25T07:17:39.531Z,57.17
2018-03-25T07:20:07.059Z,57.43
2018-03-25T07:22:35.434Z,61.17
2018-03-25T07:25:04.055Z,55.47
2018-03-25T07:27:31.778Z,55.70
2018-03-25T07:29:59.468Z,57.40
2018-03-25T07:32:27.232Z,54.03
2018-03-25T07:34:55.442Z,54.67
2018-03-25T07:37:23.105Z,54.70
2018-03-25T07:39:50.661Z,54.50
2018-03-25T07:42:18.343Z,56.33
2018-03-25T07:44:46.723Z,53.53
2018-03-25T07:47:14.610Z,53.33
2018-03-25T07:49:42.275Z,64.63
2018-03-25T07:52:10.562Z,58.07
2018-03-25T07:54:38.595Z,55.93
2018-03-25T07:57:06.184Z,49.37
2018-03-25T07:59:35.662Z,55.17
2018-03-25T08:02:03.186Z,51.47
2018-03-25T08:04:30.743Z,51.00
2018-03-25T08:07:00.339Z,52.50
2018-03-25T08:09:27.940Z,54.77
2018-03-25T08:11:55.546Z,50.40
2018-03-25T08:14:24.044Z,53.83
2018-03-25T08:16:51.710Z,54.10
2018-03-25T08:19:19.254Z,51.40
2018-03-25T08:21:47.800Z,52.00
2018-03-25T08:24:16.211Z,57.10
2018-03-25T08:26:43.892Z,49.00
2018-03-25T08:29:12.034Z,51.40
2018-03-25T08:31:40.353Z,48.17
2018-03-25T08:34:07.987Z,50.40
2018-03-25T08:36:37.155Z,45.67
2018-03-25T08:39:05.719Z,46.73
2018-03-25T08:41:33.264Z,50.00
2018-03-25T08:44:01.283Z,46.70
2018-03-25T08:46:30.433Z,51.10
2018-03-25T08:48:57.990Z,45.13
2018-03-25T08:51:27.272Z,49.53
2018-03-25T08:53:55.458Z,43.97
2018-03-25T08:56:23.015Z,38.57
2018-03-25T08:58:51.133Z,35.33
2018-03-25T09:01:18.733Z,38.77
2018-03-25T09:03:46.507Z,41.10
2018-03-25T09:06:14.034Z,33.40
2018-03-25T09:08:42.375Z,36.00
2018-03-25T09:11:10.642Z,35.00
2018-03-25T09:13:38.185Z,34.13
2018-03-25T09:16:05.761Z,40.83
2018-03-25T09:18:34.335Z,34.03
2018-03-25T09:21:01.902Z,31.90
2018-03-25T09:23:30.196Z,31.03
2018-03-25T09:25:57.830Z,25.90
2018-03-25T09:28:26.684Z,23.93
2018-03-25T09:30:55.362Z,25.63
2018-03-25T09:33:23.910Z,23.80
2018-03-25T09:35:51.479Z,22.40
2018-03-25T09:38:19.037Z,24.50
2018-03-25T09:40:46.578Z,24.53
2018-03-25T09:43:14.137Z,24.73
2018-03-25T09:45:41.887Z,23.40
2018-03-25T09:48:10.299Z,32.67
2018-03-25T09:50:37.831Z,23.87
2018-03-25T09:53:06.252Z,25.80
2018-03-25T09:55:36.019Z,23.90
2018-03-25T09:58:03.862Z,22.50
2018-03-25T10:00:36.466Z,27.33
2018-03-25T10:03:09.593Z,26.90
2018-03-25T10:05:37.118Z,25.43
2018-03-25T10:08:05.270Z,26.53
2018-03-25T10:10:32.814Z,23.90
2018-03-25T10:13:00.341Z,23.10
2018-03-25T10:15:28.673Z,24.10
2018-03-25T10:17:56.232Z,22.07
2018-03-25T10:20:24.306Z,23.60
2018-03-25T10:22:51.860Z,24.93
2018-03-25T10:25:21.937Z,26.03
2018-03-25T10:27:49.497Z,23.40
2018-03-25T10:30:18.581Z,23.33
2018-03-25T10:32:46.132Z,28.47
2018-03-25T10:35:13.939Z,27.83
2018-03-25T10:37:42.282Z,27.27
2018-03-25T10:40:09.849Z,20.70
2018-03-25T10:42:37.449Z,31.47
2018-03-25T10:45:06.573Z,22.03
2018-03-25T10:47:34.203Z,22.93
2018-03-25T10:50:01.748Z,23.67
2018-03-25T10:52:30.986Z,24.73
2018-03-25T10:54:58.592Z,25.40
2018-03-25T10:57:27.148Z,23.23
2018-03-25T10:59:55.488Z,26.17
2018-03-25T11:02:23.040Z,25.30
2018-03-25T11:04:51.365Z,23.77
2018-03-25T11:07:18.904Z,23.63
2018-03-25T11:09:46.451Z,22.90
2018-03-25T11:12:14.014Z,25.17
2018-03-25T11:14:42.099Z,26.10
2018-03-25T11:17:09.682Z,27.33
2018-03-25T11:19:37.255Z,27.00
2018-03-25T11:22:05.327Z,24.37
2018-03-25T11:24:32.876Z,21.03
2018-03-25T11:27:00.447Z,23.63
2018-03-25T11:29:28.013Z,27.10
2018-03-25T11:31:57.198Z,35.90
2018-03-25T11:34:25.374Z,25.43
2018-03-25T11:36:52.922Z,31.97
2018-03-25T11:39:21.189Z,22.80
2018-03-25T11:41:48.722Z,25.50
2018-03-25T11:44:16.254Z,24.50
2018-03-25T11:46:43.968Z,26.87
2018-03-25T11:49:11.510Z,20.90
2018-03-25T11:51:39.037Z,22.53
2018-03-25T11:54:07.383Z,25.33
2018-03-25T11:56:34.927Z,23.30
2018-03-25T11:59:02.490Z,24.70
2018-03-25T12:01:30.071Z,24.13
2018-03-25T12:03:58.641Z,25.07
2018-03-25T12:06:28.153Z,24.20
2018-03-25T12:08:56.586Z,22.30
2018-03-25T12:11:24.147Z,20.57
2018-03-25T12:13:52.438Z,24.80
2018-03-25T12:16:19.982Z,21.90
2018-03-25T12:18:48.350Z,25.80
2018-03-25T12:21:16.732Z,22.30
2018-03-25T12:23:45.474Z,25.53
2018-03-25T12:26:13.507Z,22.13
2018-03-25T12:28:41.036Z,23.80
2018-03-25T12:31:09.391Z,17.93
2018-03-25T12:33:36.967Z,21.57
2018-03-25T12:36:05.081Z,23.10
2018-03-25T12:38:33.548Z,20.27
2018-03-25T12:41:01.162Z,21.07
2018-03-25T12:43:29.296Z,23.00
2018-03-25T12:45:56.815Z,25.47
2018-03-25T12:48:24.371Z,27.30
2018-03-25T12:50:52.677Z,21.20
2018-03-25T12:53:20.580Z,24.23
2018-03-25T12:55:48.142Z,24.73
2018-03-25T12:58:17.068Z,23.83
2018-03-25T13:00:45.172Z,22.03
2018-03-25T13:03:14.634Z,24.00
2018-03-25T13:05:42.191Z,27.50
2018-03-25T13:08:09.810Z,22.20
2018-03-25T13:10:37.369Z,24.33
2018-03-25T13:13:06.031Z,22.97
2018-03-25T13:15:33.746Z,23.40
2018-03-25T13:18:01.322Z,25.23
2018-03-25T13:20:30.550Z,26.27
2018-03-25T13:22:58.899Z,23.70
2018-03-25T13:25:26.467Z,23.80
2018-03-25T13:27:54.056Z,27.20
2018-03-25T13:30:21.612Z,25.37
2018-03-25T13:32:50.843Z,26.73
2018-03-25T13:35:18.378Z,25.50
2018-03-25T13:37:45.933Z,25.50
2018-03-25T13:40:14.163Z,23.90
2018-03-25T13:42:41.722Z,22.70
2018-03-25T13:45:09.260Z,23.17
2018-03-25T13:47:36.869Z,23.07
2018-03-25T13:50:05.266Z,27.60
2018-03-25T13:52:32.842Z,27.30
2018-03-25T13:55:00.475Z,28.27
2018-03-25T13:57:28.003Z,26.90
2018-03-25T13:59:56.400Z,27.53
2018-03-25T14:02:23.926Z,28.53
2018-03-25T14:04:51.448Z,23.37
2018-03-25T14:07:19.617Z,24.40
2018-03-25T14:09:48.043Z,24.73
2018-03-25T14:12:15.577Z,24.07
2018-03-25T14:14:43.168Z,26.13
2018-03-25T14:17:10.717Z,28.27
2018-03-25T14:19:38.263Z,20.13
2018-03-25T14:22:05.833Z,24.57
2018-03-25T14:24:33.356Z,29.57
2018-03-25T14:27:01.461Z,24.07
2018-03-25T14:29:29.084Z,22.83
2018-03-25T14:31:56.686Z,23.07
2018-03-25T14:34:24.215Z,29.23
2018-03-25T14:36:51.783Z,27.80
2018-03-25T14:39:19.343Z,26.17
2018-03-25T14:41:47.718Z,39.63
2018-03-25T14:44:16.931Z,27.67
2018-03-25T14:46:44.510Z,25.10
2018-03-25T14:49:12.564Z,25.93
2018-03-25T14:51:40.201Z,22.50
2018-03-25T14:54:07.823Z,27.17
2018-03-25T14:56:35.858Z,27.67
2018-03-25T14:59:03.432Z,27.70
2018-03-25T15:01:30.970Z,25.47
2018-03-25T15:03:58.530Z,27.90
2018-03-25T15:06:26.072Z,28.77
2018-03-25T15:08:55.088Z,27.23
2018-03-25T15:11:22.650Z,27.17
2018-03-25T15:13:50.228Z,26.43
2018-03-25T15:16:17.784Z,29.43
2018-03-25T15:18:45.369Z,25.53
2018-03-25T15:21:12.918Z,24.53
2018-03-25T15:23:40.474Z,24.37
2018-03-25T15:26:08.028Z,26.70
2018-03-25T15:28:36.564Z,31.33
2018-03-25T15:31:04.149Z,25.43
2018-03-25T15:33:31.804Z,26.83
2018-03-25T15:36:00.178Z,32.20
2018-03-25T15:38:29.222Z,31.00
2018-03-25T15:40:56.762Z,25.00
2018-03-25T15:43:24.678Z,26.60
2018-03-25T15:45:52.221Z,25.87
2018-03-25T15:48:19.963Z,29.27
2018-03-25T15:50:49.731Z,28.60
2018-03-25T15:53:18.046Z,29.20
2018-03-25T15:55:46.875Z,27.30
2018-03-25T15:58:14.919Z,31.07
2018-03-25T16:00:44.255Z,29.73
2018-03-25T16:03:12.822Z,31.10
2018-03-25T16:05:41.222Z,29.17
2018-03-25T16:08:09.198Z,27.33
2018-03-25T16:10:37.499Z,29.13
2018-03-25T16:13:05.069Z,34.27
2018-03-25T16:15:34.232Z,32.00
2018-03-25T16:18:02.039Z,27.67
2018-03-25T16:20:31.292Z,28.50
2018-03-25T16:22:58.812Z,30.20
2018-03-25T16:25:26.344Z,28.30
2018-03-25T16:27:55.928Z,29.00
2018-03-25T16:30:23.596Z,33.83
2018-03-25T16:32:51.150Z,30.90
2018-03-25T16:35:23.155Z,35.70
2018-03-25T16:37:50.779Z,32.07
2018-03-25T16:40:19.198Z,30.50
2018-03-25T16:42:46.899Z,32.60
2018-03-25T16:45:15.942Z,31.17
2018-03-25T16:47:43.566Z,33.97
2018-03-25T16:50:11.111Z,28.97
2018-03-25T16:52:40.471Z,33.10
2018-03-25T16:55:08.032Z,31.17
2018-03-25T16:57:36.469Z,31.40
2018-03-25T17:00:05.455Z,30.27
2018-03-25T17:02:33.052Z,32.43
2018-03-25T17:05:00.586Z,34.03
2018-03-25T17:07:28.135Z,29.50
2018-03-25T17:09:56.482Z,33.37
2018-03-25T17:12:24.443Z,40.40
2018-03-25T17:14:51.967Z,32.47
2018-03-25T17:17:19.519Z,29.57
2018-03-25T17:19:48.034Z,36.00
2018-03-25T17:22:16.504Z,36.53
2018-03-25T17:24:44.405Z,37.00
2018-03-25T17:27:12.984Z,38.10
2018-03-25T17:29:40.442Z,34.27
2018-03-25T17:32:08.006Z,37.00
2018-03-25T17:34:36.457Z,36.00
2018-03-25T17:37:03.985Z,38.20
2018-03-25T17:39:32.273Z,36.20
2018-03-25T17:42:00.914Z,32.90
2018-03-25T17:44:28.869Z,36.37
2018-03-25T17:46:56.584Z,38.80
2018-03-25T17:49:24.896Z,37.67
2018-03-25T17:51:52.445Z,41.50
2018-03-25T17:54:19.960Z,42.13
2018-03-25T17:56:48.097Z,40.80
2018-03-25T17:59:16.311Z,40.10
2018-03-25T18:01:43.835Z,41.27
2018-03-25T18:04:11.423Z,39.90
2018-03-25T18:06:38.991Z,39.97
2018-03-25T18:09:07.325Z,41.03
2018-03-25T18:11:35.340Z,42.30
2018-03-25T18:14:03.212Z,49.27
2018-03-25T18:16:31.913Z,36.83
2018-03-25T18:18:59.444Z,37.70
2018-03-25T18:21:26.982Z,43.43
2018-03-25T18:23:54.991Z,43.33
2018-03-25T18:26:22.560Z,37.37
2018-03-25T18:28:50.846Z,37.10
2018-03-25T18:31:19.130Z,39.23
2018-03-25T18:36:20.614Z,43.03
2018-03-25T18:38:48.238Z,39.17
2018-03-25T18:41:15.751Z,43.40
2018-03-25T18:43:43.271Z,40.23
2018-03-25T18:46:11.065Z,37.60
2018-03-25T18:48:38.592Z,40.63
2018-03-25T18:51:06.889Z,39.23
2018-03-25T18:53:35.303Z,44.00
2018-03-25T18:56:02.902Z,37.40
2018-03-25T18:58:31.273Z,38.20
2018-03-25T19:00:59.616Z,40.60
2018-03-25T19:03:27.147Z,44.80
2018-03-25T19:05:55.238Z,41.60
2018-03-25T19:08:22.771Z,40.13
2018-03-25T19:10:50.291Z,39.37
2018-03-25T19:13:17.866Z,42.27
2018-03-25T19:15:45.507Z,40.30
2018-03-25T19:18:13.234Z,41.87
2018-03-25T19:20:40.788Z,44.13
2018-03-25T19:23:08.545Z,42.80
2018-03-25T19:25:36.070Z,41.20
2018-03-25T19:28:05.442Z,42.07
2018-03-25T19:30:33.136Z,42.17
2018-03-25T19:33:00.683Z,45.40
2018-03-25T19:35:28.522Z,42.37
2018-03-25T19:37:56.084Z,38.70
2018-03-25T19:40:23.924Z,36.60
2018-03-25T19:42:51.739Z,41.43
2018-03-25T19:45:19.263Z,42.80
2018-03-25T19:47:46.794Z,43.37
2018-03-25T19:50:14.460Z,41.53
2018-03-25T19:52:42.010Z,43.20
2018-03-25T19:55:10.064Z,42.50
2018-03-25T19:57:37.693Z,44.10
2018-03-25T20:00:06.101Z,45.30
2018-03-25T20:02:34.576Z,40.77
2018-03-25T20:05:02.142Z,46.27
2018-03-25T20:07:29.702Z,39.97
2018-03-25T20:09:57.265Z,51.77
2018-03-25T20:12:27.438Z,43.97
2018-03-25T20:14:55.041Z,48.90
2018-03-25T20:17:22.578Z,46.20
2018-03-25T20:19:50.135Z,49.60
2018-03-25T20:22:17.775Z,45.33
2018-03-25T20:24:46.155Z,43.33
2018-03-25T20:27:13.918Z,49.97
2018-03-25T20:29:41.465Z,46.20
2018-03-25T20:32:09.009Z,44.03
2018-03-25T20:34:37.319Z,40.70
2018-03-25T20:37:05.569Z,44.40
2018-03-25T20:39:33.117Z,40.70
2018-03-25T20:42:01.420Z,46.77
2018-03-25T20:44:31.470Z,37.83
2018-03-25T20:46:59.020Z,43.07
2018-03-25T20:49:26.580Z,41.63
2018-03-25T20:51:55.808Z,44.83
2018-03-25T20:54:23.362Z,45.43
2018-03-25T20:56:50.916Z,48.73
2018-03-25T20:59:20.122Z,35.97
2018-03-25T21:01:49.197Z,43.17
2018-03-25T21:04:16.769Z,41.67
2018-03-25T21:06:45.964Z,43.67
2018-03-25T21:09:13.546Z,44.33
2018-03-25T21:11:41.109Z,38.73
2018-03-25T21:14:09.387Z,40.20
2018-03-25T21:16:37.022Z,42.73
2018-03-25T21:19:05.238Z,47.20
2018-03-25T21:21:33.551Z,46.53
2018-03-25T21:24:01.090Z,45.80
2018-03-25T21:26:31.220Z,44.53
2018-03-25T21:28:58.752Z,46.23
2018-03-25T21:31:26.290Z,46.33
2018-03-25T21:33:53.920Z,45.40
2018-03-25T21:36:21.504Z,41.40
2018-03-25T21:38:48.999Z,46.30
2018-03-25T21:41:16.571Z,48.03
2018-03-25T21:43:44.149Z,42.10
2018-03-25T21:46:12.438Z,44.93
2018-03-25T21:48:40.029Z,44.80
2018-03-25T21:51:07.573Z,41.60
2018-03-25T21:53:35.889Z,43.83
2018-03-25T21:56:04.796Z,43.43
2018-03-25T21:58:32.337Z,42.40
2018-03-25T22:00:59.953Z,38.83
2018-03-25T22:03:28.056Z,45.40
2018-03-25T22:05:56.457Z,44.47
2018-03-25T22:08:25.280Z,37.80
2018-03-25T22:10:54.058Z,46.03
2018-03-25T22:13:21.566Z,47.30
2018-03-25T22:15:49.103Z,48.90
2018-03-25T22:18:17.167Z,49.00
2018-03-25T22:20:45.312Z,48.40
2018-03-25T22:23:12.835Z,40.83
2018-03-25T22:25:40.389Z,45.97
2018-03-25T22:28:07.919Z,40.17
2018-03-25T22:30:36.358Z,39.97
2018-03-25T22:33:05.594Z,47.67
2018-03-25T22:35:33.147Z,41.40
2018-03-25T22:38:00.666Z,36.73
2018-03-25T22:40:29.645Z,42.70
2018-03-25T22:42:57.168Z,42.97
2018-03-25T22:45:25.303Z,40.10
2018-03-25T22:47:54.228Z,42.33
2018-03-25T22:50:21.743Z,40.03
2018-03-25T22:52:50.074Z,42.07
2018-03-25T22:55:17.603Z,38.87
2018-03-25T22:57:45.857Z,36.90
2018-03-25T23:00:13.418Z,39.80
2018-03-25T23:02:41.750Z,38.53
2018-03-25T23:05:09.298Z,42.07
2018-03-25T23:07:37.742Z,36.97
2018-03-25T23:10:06.242Z,42.43
2018-03-25T23:12:34.042Z,37.20
2018-03-25T23:15:02.004Z,39.90
2018-03-25T23:17:29.555Z,41.37
2018-03-25T23:19:57.112Z,38.67
2018-03-25T23:22:26.139Z,42.93
2018-03-25T23:24:54.299Z,43.33
2018-03-25T23:27:22.671Z,40.90
2018-03-25T23:29:50.201Z,39.90
2018-03-25T23:32:17.745Z,43.13
2018-03-25T23:34:46.058Z,39.10
2018-03-25T23:37:13.865Z,42.67
2018-03-25T23:39:41.422Z,43.90
2018-03-25T23:42:10.478Z,40.70
2018-03-25T23:44:38.033Z,36.50
2018-03-25T23:47:06.346Z,43.30
2018-03-25T23:49:34.684Z,42.87
2018-03-25T23:52:02.220Z,40.67
2018-03-25T23:54:31.227Z,40.73
2018-03-25T23:56:58.811Z,41.03
2018-03-25T23:59:26.483Z,48.47
